Time;durP1;ratioP1;P1;durP2;ratioP2;P2;SDS_P1;SDS_P2;PMS_P1;PMS_P2;Temp;Humidity;BMP_temperature;BMP_pressure;BME280_temperature;BME280_humidity;BME280_pressure;Samples;Min_cycle;Max_cycle;Signal;HPM_P1;HPM_P2
2023/10/19 00:01:44;;;;;;;42.97;24.15;;;;;;;;;;5108618;27;20116;-84
2023/10/19 00:04:34;;;;;;;41.05;23.77;;;;;;;;;;5106918;27;20051;-81
2023/10/19 00:07:18;;;;;;;45.35;25.42;;;;;;;;;;5109695;27;20517;-82
2023/10/19 00:10:04;;;;;;;44.00;25.65;;;;;;;;;;5106477;27;20490;-82
2023/10/19 00:12:57;;;;;;;47.33;25.80;;;;;;;;;;5109552;27;20046;-83
2023/10/19 00:15:54;;;;;;;45.38;26.83;;;;;;;;;;5112491;27;20406;-80
2023/10/19 00:18:42;;;;;;;51.83;25.98;;;;;;;;;;5110320;27;20050;-83
2023/10/19 00:21:28;;;;;;;48.60;25.42;;;;;;;;;;5100164;27;20038;-82
2023/10/19 00:24:16;;;;;;;42.45;23.48;;;;;;;;;;5107392;27;20496;-83
2023/10/19 00:27:19;;;;;;;38.08;22.85;;;;;;;;;;5107358;27;20050;-84
2023/10/19 00:30:08;;;;;;;39.90;23.33;;;;;;;;;;5061860;28;20466;-81
2023/10/19 00:32:54;;;;;;;39.97;21.85;;;;;;;;;;5059167;28;20063;-85
2023/10/19 00:35:56;;;;;;;35.80;21.75;;;;;;;;;;5059694;28;20478;-83
2023/10/19 00:41:34;;;;;;;36.70;21.38;;;;;;;;;;5060402;28;20039;-81
2023/10/19 00:44:24;;;;;;;36.60;21.85;;;;;;;;;;5063065;28;20051;-81
2023/10/19 00:47:13;;;;;;;35.65;21.02;;;;;;;;;;5067968;28;20051;-82
2023/10/19 00:50:02;;;;;;;48.20;23.73;;;;;;;;;;5082239;28;20387;-82
2023/10/19 00:52:51;;;;;;;38.60;21.58;;;;;;;;;;5060488;28;20455;-84
2023/10/19 00:55:38;;;;;;;44.88;21.52;;;;;;;;;;5067940;28;20059;-80
2023/10/19 00:58:29;;;;;;;39.88;22.08;;;;;;;;;;5061858;28;20055;-83
2023/10/19 01:01:15;;;;;;;41.85;22.17;;;;;;;;;;5060102;28;20391;-82
2023/10/19 01:04:04;;;;;;;38.13;20.65;;;;;;;;;;5059459;28;20051;-82
2023/10/19 01:10:20;;;;;;;;;;;;;;;;;;5064461;28;20047;-81
2023/10/19 01:13:06;;;;;;;39.97;21.20;;;;;;;;;;5066037;28;19922;-81
2023/10/19 01:15:50;;;;;;;41.88;21.20;;;;;;;;;;5072241;28;20471;-84
2023/10/19 01:18:36;;;;;;;45.90;21.70;;;;;;;;;;5058956;28;20466;-82
2023/10/19 01:21:45;;;;;;;47.40;23.52;;;;;;;;;;5064212;28;20486;-84
2023/10/19 01:24:42;;;;;;;41.63;21.35;;;;;;;;;;5057865;28;20039;-85
2023/10/19 01:27:26;;;;;;;39.70;21.73;;;;;;;;;;5061375;28;20377;-83
2023/10/19 01:30:14;;;;;;;36.67;20.73;;;;;;;;;;5063690;28;20050;-81
2023/10/19 01:32:59;;;;;;;36.47;19.58;;;;;;;;;;5064637;28;20043;-79
2023/10/19 01:38:47;;;;;;;29.20;18.55;;;;;;;;;;5076279;28;20506;-83
2023/10/19 01:41:32;;;;;;;30.40;18.88;;;;;;;;;;5070818;28;20052;-83
2023/10/19 01:44:20;;;;;;;34.03;19.15;;;;;;;;;;5061110;28;20048;-82
2023/10/19 01:47:06;;;;;;;38.50;19.55;;;;;;;;;;5067673;28;20482;-84
2023/10/19 01:49:52;;;;;;;36.90;20.05;;;;;;;;;;5079180;28;20059;-83
2023/10/19 01:52:38;;;;;;;33.70;20.08;;;;;;;;;;5059491;28;20035;-82
2023/10/19 01:55:23;;;;;;;33.95;20.23;;;;;;;;;;5050377;28;20423;-83
2023/10/19 01:58:08;;;;;;;33.35;21.10;;;;;;;;;;5066125;28;20395;-81
2023/10/19 02:01:00;;;;;;;36.45;19.90;;;;;;;;;;5068642;28;20063;-82
2023/10/19 02:03:45;;;;;;;32.17;18.98;;;;;;;;;;5062088;28;20046;-83
2023/10/19 02:12:07;;;;;;;36.38;19.02;;;;;;;;;;5062711;28;20059;-83
2023/10/19 02:14:53;;;;;;;41.65;20.52;;;;;;;;;;5062787;28;20031;-83
2023/10/19 02:17:39;;;;;;;47.15;27.58;;;;;;;;;;5069264;28;20509;-81
2023/10/19 02:20:25;;;;;;;35.15;21.40;;;;;;;;;;5082164;28;20059;-84
2023/10/19 02:23:11;;;;;;;36.13;20.30;;;;;;;;;;5062170;28;20477;-84
2023/10/19 02:25:57;;;;;;;36.28;19.48;;;;;;;;;;5068313;28;20059;-82
2023/10/19 02:28:44;;;;;;;37.83;20.90;;;;;;;;;;5082079;27;20496;-81
2023/10/19 02:31:29;;;;;;;37.95;21.13;;;;;;;;;;5109090;27;20477;-83
2023/10/19 02:34:17;;;;;;;36.35;20.92;;;;;;;;;;5108070;27;20124;-85
2023/10/19 02:37:02;;;;;;;33.85;20.20;;;;;;;;;;5109489;27;20811;-85
2023/10/19 02:39:49;;;;;;;30.63;19.58;;;;;;;;;;5101118;27;20038;-81
2023/10/19 02:42:35;;;;;;;34.28;19.30;;;;;;;;;;5108762;27;20074;-83
2023/10/19 02:45:20;;;;;;;33.80;20.27;;;;;;;;;;5101280;27;20386;-84
2023/10/19 02:48:05;;;;;;;40.97;21.83;;;;;;;;;;5109316;27;20409;-81
2023/10/19 02:50:50;;;;;;;36.58;22.20;;;;;;;;;;5107685;27;20382;-84
2023/10/19 02:53:35;;;;;;;39.42;21.85;;;;;;;;;;5108539;27;20398;-82
2023/10/19 02:56:23;;;;;;;35.17;21.27;;;;;;;;;;5116703;27;20473;-82
2023/10/19 02:59:09;;;;;;;39.60;22.40;;;;;;;;;;5112545;27;20473;-83
2023/10/19 03:04:56;;;;;;;35.97;20.67;;;;;;;;;;5101527;27;20386;-80
2023/10/19 03:07:44;;;;;;;34.20;20.17;;;;;;;;;;5107112;27;20552;-80
2023/10/19 03:10:41;;;;;;;32.00;18.73;;;;;;;;;;5101951;27;20710;-84
2023/10/19 03:13:27;;;;;;;32.05;18.42;;;;;;;;;;5106941;27;20393;-84
2023/10/19 03:16:12;;;;;;;31.50;18.10;;;;;;;;;;5103581;27;20046;-83
2023/10/19 03:18:58;;;;;;;38.22;19.23;;;;;;;;;;5100699;27;20066;-84
2023/10/19 03:21:48;;;;;;;30.67;18.83;;;;;;;;;;5101558;27;20469;-85
2023/10/19 03:24:36;;;;;;;29.80;18.52;;;;;;;;;;5108297;27;20390;-84
2023/10/19 03:27:22;;;;;;;31.83;18.95;;;;;;;;;;5107021;27;20402;-82
2023/10/19 03:30:07;;;;;;;29.27;18.13;;;;;;;;;;5101999;27;20046;-81
2023/10/19 03:32:52;;;;;;;34.17;19.25;;;;;;;;;;5109279;27;20477;-81
2023/10/19 03:35:38;;;;;;;27.60;18.20;;;;;;;;;;5114068;27;20462;-82
2023/10/19 03:38:23;;;;;;;27.65;17.60;;;;;;;;;;5099744;27;20402;-82
2023/10/19 03:41:09;;;;;;;29.80;18.08;;;;;;;;;;5109275;27;20386;-82
2023/10/19 03:43:54;;;;;;;29.35;17.33;;;;;;;;;;5111256;27;20035;-84
2023/10/19 03:46:52;;;;;;;31.50;17.58;;;;;;;;;;5094634;27;20097;-82
2023/10/19 03:49:39;;;;;;;31.23;17.95;;;;;;;;;;5093228;27;20058;-83
2023/10/19 03:52:26;;;;;;;30.73;17.58;;;;;;;;;;5102369;27;20394;-83
2023/10/19 03:55:14;;;;;;;36.42;18.38;;;;;;;;;;5107646;27;20464;-83
2023/10/19 03:58:00;;;;;;;30.55;17.98;;;;;;;;;;5107242;27;20042;-84
2023/10/19 04:00:45;;;;;;;32.05;18.20;;;;;;;;;;5101769;27;20469;-81
2023/10/19 04:03:30;;;;;;;27.50;17.33;;;;;;;;;;5100560;27;20035;-84
2023/10/19 04:06:16;;;;;;;31.17;17.65;;;;;;;;;;5107661;27;20054;-84
2023/10/19 04:09:01;;;;;;;34.45;17.58;;;;;;;;;;5108214;27;20468;-82
2023/10/19 04:11:49;;;;;;;32.40;17.50;;;;;;;;;;5109420;27;20394;-83
2023/10/19 04:14:35;;;;;;;30.85;17.60;;;;;;;;;;5103432;27;20066;-82
2023/10/19 04:17:24;;;;;;;29.17;16.88;;;;;;;;;;5106500;27;20058;-84
2023/10/19 04:23:10;;;;;;;;;;;;;;;;;;5106612;27;20398;-84
2023/10/19 04:25:58;;;;;;;31.38;18.23;;;;;;;;;;5099529;27;19915;-82
2023/10/19 04:28:50;;;;;;;34.70;18.83;;;;;;;;;;5099217;27;20071;-85
2023/10/19 04:31:49;;;;;;;40.08;21.80;;;;;;;;;;5100989;27;20145;-83
2023/10/19 04:34:36;;;;;;;40.65;24.75;;;;;;;;;;5099604;27;20042;-83
2023/10/19 04:37:23;;;;;;;37.95;23.00;;;;;;;;;;5100081;27;20038;-82
2023/10/19 04:40:09;;;;;;;47.70;22.98;;;;;;;;;;5101335;27;20042;-86
2023/10/19 04:42:57;;;;;;;30.27;18.42;;;;;;;;;;5078068;27;20457;-88
2023/10/19 04:45:44;;;;;;;37.55;20.45;;;;;;;;;;5092539;27;20390;-86
2023/10/19 04:48:31;;;;;;;31.73;18.40;;;;;;;;;;5100629;27;20057;-83
2023/10/19 04:51:17;;;;;;;37.33;20.60;;;;;;;;;;5106634;27;20038;-82
2023/10/19 04:54:02;;;;;;;41.00;24.38;;;;;;;;;;5104942;27;20398;-83
2023/10/19 04:56:48;;;;;;;58.72;29.38;;;;;;;;;;5106604;27;20442;-80
2023/10/19 04:59:33;;;;;;;40.72;25.92;;;;;;;;;;5099361;27;20058;-82
2023/10/19 05:02:19;;;;;;;43.30;22.23;;;;;;;;;;5106739;27;20061;-81
2023/10/19 05:05:04;;;;;;;37.05;20.73;;;;;;;;;;5090487;27;20049;-81
2023/10/19 05:07:49;;;;;;;30.42;18.35;;;;;;;;;;5105058;27;20046;-82
2023/10/19 05:10:34;;;;;;;42.28;20.02;;;;;;;;;;5099756;27;20050;-82
2023/10/19 05:13:30;;;;;;;41.25;21.55;;;;;;;;;;5098580;27;20043;-82
2023/10/19 05:16:16;;;;;;;36.05;21.90;;;;;;;;;;5108379;27;20401;-88
2023/10/19 05:19:03;;;;;;;39.70;22.80;;;;;;;;;;5106377;27;20037;-83
2023/10/19 05:21:48;;;;;;;45.13;25.88;;;;;;;;;;5107112;27;20042;-81
2023/10/19 05:24:33;;;;;;;46.08;23.27;;;;;;;;;;5099598;27;20488;-82
2023/10/19 05:27:19;;;;;;;33.13;20.88;;;;;;;;;;5097931;27;20042;-84
2023/10/19 05:30:05;;;;;;;40.70;22.42;;;;;;;;;;5107215;27;20555;-81
2023/10/19 05:32:51;;;;;;;40.75;22.33;;;;;;;;;;5110408;27;20038;-82
2023/10/19 05:35:40;;;;;;;41.67;22.25;;;;;;;;;;5113017;27;20027;-82
2023/10/19 05:38:27;;;;;;;38.45;22.63;;;;;;;;;;5112634;27;20046;-81
2023/10/19 05:41:11;;;;;;;33.03;20.30;;;;;;;;;;5098026;27;20030;-81
2023/10/19 05:43:57;;;;;;;38.60;22.35;;;;;;;;;;5110226;27;20501;-83
2023/10/19 05:46:42;;;;;;;37.30;20.73;;;;;;;;;;5098633;27;20402;-82
2023/10/19 05:49:26;;;;;;;103.03;64.88;;;;;;;;;;5100914;28;20031;-85
2023/10/19 05:52:11;;;;;;;39.67;23.73;;;;;;;;;;5107121;27;20047;-82
2023/10/19 05:54:57;;;;;;;44.65;25.98;;;;;;;;;;5095380;27;20038;-84
2023/10/19 05:57:42;;;;;;;46.90;28.27;;;;;;;;;;5103962;28;20042;-82
2023/10/19 06:00:28;;;;;;;42.30;25.25;;;;;;;;;;5109401;27;20046;-83
2023/10/19 06:03:14;;;;;;;40.88;23.40;;;;;;;;;;5103431;27;20409;-83
2023/10/19 06:05:59;;;;;;;43.95;25.48;;;;;;;;;;5103194;27;20448;-84
2023/10/19 06:08:45;;;;;;;43.17;25.88;;;;;;;;;;5097078;28;20038;-82
2023/10/19 06:11:32;;;;;;;49.75;28.50;;;;;;;;;;5102043;27;20042;-82
2023/10/19 06:14:17;;;;;;;45.08;26.80;;;;;;;;;;5094761;28;20445;-85
2023/10/19 06:17:02;;;;;;;45.15;26.70;;;;;;;;;;5101865;27;20052;-82
2023/10/19 06:19:47;;;;;;;45.15;26.95;;;;;;;;;;5094396;28;20042;-85
2023/10/19 06:22:32;;;;;;;42.63;24.95;;;;;;;;;;5098348;27;20046;-88
2023/10/19 06:25:18;;;;;;;42.10;23.45;;;;;;;;;;5099841;27;20516;-83
2023/10/19 06:28:03;;;;;;;41.45;23.70;;;;;;;;;;5093364;28;20094;-82
2023/10/19 06:30:48;;;;;;;38.55;24.77;;;;;;;;;;5099167;27;20050;-80
2023/10/19 06:33:34;;;;;;;38.67;24.42;;;;;;;;;;5100737;27;20038;-80
2023/10/19 06:36:19;;;;;;;34.00;22.75;;;;;;;;;;5094929;28;20038;-83
2023/10/19 06:39:06;;;;;;;39.20;25.73;;;;;;;;;;5099669;27;20054;-82
2023/10/19 06:41:50;;;;;;;61.55;32.67;;;;;;;;;;5100631;27;20124;-82
2023/10/19 06:44:36;;;;;;;65.82;33.78;;;;;;;;;;5103373;27;20054;-81
2023/10/19 06:47:23;;;;;;;81.50;38.85;;;;;;;;;;5103596;27;20050;-82
2023/10/19 06:50:10;;;;;;;72.53;35.58;;;;;;;;;;5103610;27;20066;-82
2023/10/19 06:52:55;;;;;;;47.30;25.38;;;;;;;;;;5105948;27;20504;-81
2023/10/19 06:55:41;;;;;;;43.05;25.15;;;;;;;;;;5101757;27;20047;-85
2023/10/19 06:58:26;;;;;;;37.00;23.50;;;;;;;;;;5108971;27;20043;-81
2023/10/19 07:01:11;;;;;;;46.50;27.25;;;;;;;;;;5103708;27;20469;-85
2023/10/19 07:03:56;;;;;;;42.25;25.30;;;;;;;;;;5105584;27;20046;-80
2023/10/19 07:06:42;;;;;;;39.85;24.02;;;;;;;;;;5096691;27;20429;-83
2023/10/19 07:09:27;;;;;;;44.90;26.27;;;;;;;;;;5098143;27;20494;-82
2023/10/19 07:12:12;;;;;;;55.60;29.20;;;;;;;;;;5106348;27;20042;-79
2023/10/19 07:15:00;;;;;;;59.90;30.58;;;;;;;;;;5104432;27;20038;-82
2023/10/19 07:17:46;;;;;;;48.22;27.38;;;;;;;;;;5105885;27;20482;-82
2023/10/19 07:20:32;;;;;;;46.47;23.13;;;;;;;;;;5100499;27;20396;-80
2023/10/19 07:23:22;;;;;;;35.60;20.45;;;;;;;;;;5098495;27;20485;-85
2023/10/19 07:26:07;;;;;;;32.10;17.98;;;;;;;;;;5105418;27;20046;-82
2023/10/19 07:28:53;;;;;;;30.08;18.50;;;;;;;;;;5103131;27;20075;-80
2023/10/19 07:31:38;;;;;;;27.17;17.10;;;;;;;;;;5108117;27;20058;-82
2023/10/19 07:34:28;;;;;;;23.58;15.65;;;;;;;;;;5105966;27;20039;-82
2023/10/19 07:37:15;;;;;;;37.30;17.30;;;;;;;;;;5106830;27;20559;-83
2023/10/19 07:39:59;;;;;;;25.25;15.57;;;;;;;;;;5107714;27;20398;-82
2023/10/19 07:42:45;;;;;;;35.35;16.48;;;;;;;;;;5104483;27;20401;-81
2023/10/19 07:45:31;;;;;;;34.45;18.77;;;;;;;;;;5103772;27;20389;-83
2023/10/19 07:48:16;;;;;;;37.53;17.30;;;;;;;;;;5098094;27;20050;-81
2023/10/19 07:51:02;;;;;;;32.20;17.88;;;;;;;;;;5104477;27;20058;-82
2023/10/19 07:53:48;;;;;;;25.90;15.25;;;;;;;;;;5096856;27;20046;-82
2023/10/19 07:56:34;;;;;;;23.95;15.45;;;;;;;;;;5097024;27;20386;-83
2023/10/19 07:59:19;;;;;;;26.05;14.82;;;;;;;;;;5103094;27;20398;-82
2023/10/19 08:02:05;;;;;;;24.00;15.10;;;;;;;;;;5103054;27;20042;-83
2023/10/19 08:04:51;;;;;;;23.88;14.13;;;;;;;;;;5096179;27;21512;-81
2023/10/19 08:07:36;;;;;;;23.25;14.32;;;;;;;;;;5102456;27;20055;-83
2023/10/19 08:10:22;;;;;;;24.85;14.32;;;;;;;;;;5104803;27;20493;-79
2023/10/19 08:13:08;;;;;;;23.30;12.38;;;;;;;;;;5096081;27;20426;-81
2023/10/19 08:15:53;;;;;;;19.52;12.55;;;;;;;;;;5106238;27;20065;-83
2023/10/19 08:18:39;;;;;;;16.95;11.95;;;;;;;;;;5107436;27;20038;-82
2023/10/19 08:21:23;;;;;;;28.38;13.95;;;;;;;;;;5111389;27;20381;-83
2023/10/19 08:24:13;;;;;;;24.83;13.38;;;;;;;;;;5108874;27;20042;-82
2023/10/19 08:26:59;;;;;;;18.70;11.45;;;;;;;;;;5098396;27;20046;-81
2023/10/19 08:29:46;;;;;;;23.85;11.40;;;;;;;;;;5098244;27;20050;-82
2023/10/19 08:32:32;;;;;;;23.25;12.93;;;;;;;;;;5106229;27;20527;-81
2023/10/19 08:35:25;;;;;;;14.07;8.35;;;;;;;;;;5095974;27;20501;-80
2023/10/19 08:38:11;;;;;;;21.77;12.43;;;;;;;;;;5104412;27;20388;-83
2023/10/19 08:40:57;;;;;;;14.55;9.88;;;;;;;;;;5102946;27;20046;-81
2023/10/19 08:43:42;;;;;;;11.10;5.22;;;;;;;;;;5103814;27;20503;-83
2023/10/19 08:46:28;;;;;;;7.90;5.13;;;;;;;;;;5104071;27;20577;-82
2023/10/19 08:49:16;;;;;;;14.95;7.95;;;;;;;;;;5102409;27;20513;-82
2023/10/19 08:52:04;;;;;;;12.73;5.85;;;;;;;;;;5103976;27;20039;-84
2023/10/19 08:54:49;;;;;;;9.45;5.03;;;;;;;;;;5101828;27;20408;-79
2023/10/19 08:57:35;;;;;;;5.90;4.32;;;;;;;;;;5101955;27;20067;-79
2023/10/19 09:00:24;;;;;;;8.15;4.18;;;;;;;;;;5095650;27;20450;-80
2023/10/19 09:03:09;;;;;;;8.05;4.32;;;;;;;;;;5101969;27;20035;-79
2023/10/19 09:05:54;;;;;;;6.05;3.88;;;;;;;;;;5102549;27;20043;-80
2023/10/19 09:08:40;;;;;;;7.50;4.32;;;;;;;;;;5102121;27;20455;-77
2023/10/19 09:11:25;;;;;;;6.95;3.78;;;;;;;;;;5101844;27;20043;-81
2023/10/19 09:14:12;;;;;;;9.38;4.15;;;;;;;;;;5103231;27;20042;-79
2023/10/19 09:16:57;;;;;;;6.72;4.20;;;;;;;;;;5095668;27;20442;-80
2023/10/19 09:19:44;;;;;;;7.68;4.65;;;;;;;;;;5095524;27;20375;-80
2023/10/19 09:22:44;;;;;;;9.82;4.53;;;;;;;;;;5103215;27;20043;-81
2023/10/19 09:25:29;;;;;;;7.47;4.97;;;;;;;;;;5105272;27;20035;-80
2023/10/19 09:28:14;;;;;;;9.10;4.55;;;;;;;;;;5100858;27;20043;-82
2023/10/19 09:31:00;;;;;;;7.47;4.43;;;;;;;;;;5109970;27;20036;-81
2023/10/19 09:33:47;;;;;;;6.30;4.30;;;;;;;;;;5101008;27;20035;-79
2023/10/19 09:36:34;;;;;;;6.50;4.68;;;;;;;;;;5099084;27;20042;-81
2023/10/19 09:39:19;;;;;;;6.95;4.55;;;;;;;;;;5104096;27;20453;-79
2023/10/19 09:42:16;;;;;;;11.90;4.68;;;;;;;;;;5099111;27;20039;-79
2023/10/19 09:45:05;;;;;;;9.73;6.65;;;;;;;;;;5097025;27;20398;-80
2023/10/19 09:47:51;;;;;;;10.43;6.40;;;;;;;;;;5101308;27;20366;-82
2023/10/19 09:50:36;;;;;;;9.07;5.15;;;;;;;;;;5102467;27;20040;-79
2023/10/19 09:53:23;;;;;;;8.57;5.47;;;;;;;;;;5100698;27;20379;-80
2023/10/19 09:56:12;;;;;;;7.32;4.90;;;;;;;;;;5102873;27;20035;-79
2023/10/19 09:58:59;;;;;;;10.55;5.50;;;;;;;;;;5101219;27;20367;-82
2023/10/19 10:02:02;;;;;;;14.77;7.25;;;;;;;;;;5095509;28;20488;-79
2023/10/19 10:04:48;;;;;;;8.90;5.60;;;;;;;;;;5094585;28;20420;-81
2023/10/19 10:07:33;;;;;;;7.63;4.85;;;;;;;;;;5101113;27;20044;-80
2023/10/19 10:10:18;;;;;;;10.38;5.85;;;;;;;;;;5094597;28;20380;-80
2023/10/19 10:13:24;;;;;;;9.88;5.03;;;;;;;;;;5100621;27;20038;-81
2023/10/19 10:16:13;;;;;;;5.28;4.75;;;;;;;;;;5092096;28;20450;-80
2023/10/19 10:18:59;;;;;;;11.02;6.40;;;;;;;;;;5096443;27;20039;-80
2023/10/19 10:22:04;;;;;;;17.25;7.90;;;;;;;;;;5106114;27;20129;-82
2023/10/19 10:24:54;;;;;;;14.73;6.05;;;;;;;;;;5105748;27;20038;-80
2023/10/19 10:27:51;;;;;;;10.45;5.82;;;;;;;;;;5105317;27;20062;-80
2023/10/19 10:30:36;;;;;;;10.38;7.15;;;;;;;;;;5105101;27;20120;-81
2023/10/19 10:33:40;;;;;;;17.95;8.98;;;;;;;;;;5104100;27;20381;-81
2023/10/19 10:36:26;;;;;;;10.13;6.72;;;;;;;;;;5106079;27;20390;-80
2023/10/19 10:39:16;;;;;;;13.40;8.38;;;;;;;;;;5097210;27;20401;-79
2023/10/19 10:42:05;;;;;;;13.50;7.60;;;;;;;;;;5104948;27;20050;-81
2023/10/19 10:44:55;;;;;;;8.25;5.97;;;;;;;;;;5104809;27;20038;-80
2023/10/19 10:47:44;;;;;;;7.90;5.13;;;;;;;;;;5105013;27;20035;-81
2023/10/19 10:50:29;;;;;;;9.43;5.60;;;;;;;;;;5105644;27;20355;-80
2023/10/19 10:53:17;;;;;;;11.82;6.15;;;;;;;;;;5082882;27;20458;-82
2023/10/19 10:56:02;;;;;;;13.85;7.55;;;;;;;;;;5099400;27;20416;-81
2023/10/19 10:58:48;;;;;;;11.88;6.93;;;;;;;;;;5099436;27;20370;-80
2023/10/19 11:01:33;;;;;;;9.82;5.32;;;;;;;;;;5105396;27;20398;-79
2023/10/19 11:04:18;;;;;;;14.15;5.90;;;;;;;;;;5101723;27;20039;-81
2023/10/19 11:07:04;;;;;;;8.52;5.22;;;;;;;;;;5105352;27;20387;-83
2023/10/19 11:09:49;;;;;;;10.13;4.88;;;;;;;;;;5097524;27;20375;-80
2023/10/19 11:12:35;;;;;;;8.05;4.35;;;;;;;;;;5104988;27;20046;-80
2023/10/19 11:15:21;;;;;;;8.88;5.28;;;;;;;;;;5102945;27;20471;-83
2023/10/19 11:18:07;;;;;;;11.13;5.03;;;;;;;;;;5105020;27;20043;-79
2023/10/19 11:20:54;;;;;;;7.50;4.35;;;;;;;;;;5104744;27;20042;-82
2023/10/19 11:23:41;;;;;;;12.25;6.32;;;;;;;;;;5106255;27;20039;-81
2023/10/19 11:26:25;;;;;;;8.40;4.57;;;;;;;;;;5109989;27;20043;-79
2023/10/19 11:29:16;;;;;;;8.95;4.70;;;;;;;;;;5101371;27;20550;-81
2023/10/19 11:32:02;;;;;;;11.32;5.40;;;;;;;;;;5100339;27;20031;-79
2023/10/19 11:34:47;;;;;;;8.40;5.18;;;;;;;;;;5107186;27;20027;-81
2023/10/19 11:37:48;;;;;;;15.77;4.20;;;;;;;;;;5107385;27;20024;-81
2023/10/19 11:40:33;;;;;;;6.05;3.67;;;;;;;;;;5106177;27;20062;-80
2023/10/19 11:43:18;;;;;;;8.70;4.28;;;;;;;;;;5105532;27;20039;-81
2023/10/19 11:46:22;;;;;;;6.53;4.35;;;;;;;;;;5105114;27;20509;-80
2023/10/19 11:49:09;;;;;;;7.50;4.70;;;;;;;;;;5104413;27;20024;-78
2023/10/19 11:51:54;;;;;;;13.60;4.85;;;;;;;;;;5104609;27;20039;-81
2023/10/19 11:54:40;;;;;;;7.78;4.13;;;;;;;;;;5102691;27;20050;-79
2023/10/19 11:57:25;;;;;;;5.18;3.10;;;;;;;;;;5097262;27;20031;-80
2023/10/19 12:00:14;;;;;;;10.38;5.05;;;;;;;;;;5100651;27;20383;-81
2023/10/19 12:02:58;;;;;;;20.38;6.75;;;;;;;;;;5096921;27;20070;-81
2023/10/19 12:05:44;;;;;;;6.38;3.30;;;;;;;;;;5102489;27;20040;-80
2023/10/19 12:08:29;;;;;;;7.82;3.08;;;;;;;;;;5102147;27;20082;-79
2023/10/19 12:11:18;;;;;;;8.45;3.60;;;;;;;;;;5097322;27;20047;-80
2023/10/19 12:14:03;;;;;;;5.32;2.67;;;;;;;;;;5095480;27;20367;-81
2023/10/19 12:16:48;;;;;;;;;;;;;;;;;;5109562;27;20451;-81
2023/10/19 12:19:33;;;;;;;6.60;3.75;;;;;;;;;;5109157;27;19922;-79
2023/10/19 12:22:17;;;;;;;;;;;;;;;;;;5103641;27;20367;-79
2023/10/19 12:25:03;;;;;;;7.18;4.03;;;;;;;;;;5107034;27;19934;-80
2023/10/19 12:27:49;;;;;;;8.60;4.40;;;;;;;;;;5106825;27;20036;-80
2023/10/19 12:30:38;;;;;;;9.57;4.80;;;;;;;;;;5101980;27;20059;-81
2023/10/19 12:33:23;;;;;;;12.05;6.47;;;;;;;;;;5107494;27;20442;-80
2023/10/19 12:39:35;;;;;;;10.82;7.03;;;;;;;;;;5105269;27;20382;-80
2023/10/19 12:42:22;;;;;;;17.67;8.85;;;;;;;;;;5100609;27;20457;-82
2023/10/19 12:45:10;;;;;;;28.25;14.98;;;;;;;;;;5100501;27;20043;-79
2023/10/19 12:47:55;;;;;;;18.15;8.63;;;;;;;;;;5100122;27;20389;-80
2023/10/19 12:50:41;;;;;;;8.95;4.97;;;;;;;;;;5106961;27;20386;-82
2023/10/19 12:53:27;;;;;;;8.73;5.32;;;;;;;;;;5099741;27;20446;-81
2023/10/19 12:56:11;;;;;;;7.30;2.63;;;;;;;;;;5107325;27;20455;-80
2023/10/19 12:58:57;;;;;;;6.28;3.42;;;;;;;;;;5098686;27;20039;-84
2023/10/19 13:01:44;;;;;;;5.15;3.42;;;;;;;;;;5103183;27;20031;-83
2023/10/19 13:04:31;;;;;;;7.43;4.10;;;;;;;;;;5106961;27;20035;-81
2023/10/19 13:07:16;;;;;;;6.20;4.72;;;;;;;;;;5104916;27;20363;-81
2023/10/19 13:10:01;;;;;;;11.73;3.90;;;;;;;;;;5106437;27;20039;-80
2023/10/19 13:12:47;;;;;;;6.95;3.30;;;;;;;;;;5106689;27;20055;-82
2023/10/19 13:15:36;;;;;;;6.30;3.10;;;;;;;;;;5096346;27;20371;-82
2023/10/19 13:18:24;;;;;;;6.28;3.85;;;;;;;;;;5105042;27;20031;-81
2023/10/19 13:21:11;;;;;;;4.68;3.50;;;;;;;;;;5099422;27;20039;-82
2023/10/19 13:23:56;;;;;;;5.57;3.15;;;;;;;;;;5101964;27;20031;-80
2023/10/19 13:26:45;;;;;;;7.22;3.00;;;;;;;;;;5109170;27;20374;-80
2023/10/19 13:29:37;;;;;;;7.63;3.83;;;;;;;;;;5099207;27;20051;-82
2023/10/19 13:32:22;;;;;;;7.45;4.03;;;;;;;;;;5107594;27;20032;-80
2023/10/19 13:35:07;;;;;;;9.23;6.20;;;;;;;;;;5107481;27;20032;-81
2023/10/19 13:37:52;;;;;;;6.35;3.47;;;;;;;;;;5110198;27;20466;-81
2023/10/19 13:40:38;;;;;;;8.35;4.32;;;;;;;;;;5099234;27;20363;-81
2023/10/19 13:43:23;;;;;;;12.77;5.20;;;;;;;;;;5109355;27;20031;-82
2023/10/19 13:46:09;;;;;;;9.23;4.28;;;;;;;;;;5099724;27;20477;-80
2023/10/19 13:48:54;;;;;;;8.23;3.55;;;;;;;;;;5097759;27;20047;-81
2023/10/19 13:51:40;;;;;;;8.10;2.72;;;;;;;;;;5106426;27;20057;-80
2023/10/19 13:54:24;;;;;;;;;;;;;;;;;;5105128;27;20370;-80
2023/10/19 13:57:09;;;;;;;4.50;2.60;;;;;;;;;;5105774;27;19938;-78
2023/10/19 13:59:55;;;;;;;6.38;2.60;;;;;;;;;;5097492;28;20359;-80
2023/10/19 14:02:40;;;;;;;4.53;2.38;;;;;;;;;;5106235;27;20027;-79
2023/10/19 14:05:25;;;;;;;7.15;2.97;;;;;;;;;;5105743;27;20031;-79
2023/10/19 14:08:10;;;;;;;7.82;4.22;;;;;;;;;;5103416;27;21773;-80
2023/10/19 14:11:00;;;;;;;8.57;3.33;;;;;;;;;;5106431;27;20040;-80
2023/10/19 14:13:46;;;;;;;8.52;3.33;;;;;;;;;;5096280;28;20031;-81
2023/10/19 14:16:31;;;;;;;6.70;3.15;;;;;;;;;;5105571;27;20024;-79
2023/10/19 14:19:17;;;;;;;4.28;3.05;;;;;;;;;;5103417;27;20370;-82
2023/10/19 14:22:02;;;;;;;19.65;5.50;;;;;;;;;;5104103;27;20382;-81
2023/10/19 14:24:48;;;;;;;10.88;5.20;;;;;;;;;;5093977;28;20489;-83
2023/10/19 14:27:34;;;;;;;6.60;3.80;;;;;;;;;;5094773;28;20486;-84
2023/10/19 14:30:22;;;;;;;8.65;4.28;;;;;;;;;;5105954;27;21098;-82
2023/10/19 14:33:10;;;;;;;9.57;5.57;;;;;;;;;;5096797;28;20387;-80
2023/10/19 14:35:55;;;;;;;14.90;7.70;;;;;;;;;;5097803;28;20386;-81
2023/10/19 14:38:43;;;;;;;11.50;6.00;;;;;;;;;;5097973;28;20035;-80
2023/10/19 14:41:28;;;;;;;10.20;5.00;;;;;;;;;;5104249;27;20050;-78
2023/10/19 14:44:14;;;;;;;9.02;4.13;;;;;;;;;;5098760;28;20030;-79
2023/10/19 14:46:58;;;;;;;11.25;6.30;;;;;;;;;;5105049;27;20035;-82
2023/10/19 14:49:43;;;;;;;14.15;9.10;;;;;;;;;;5098285;28;20475;-81
2023/10/19 14:52:29;;;;;;;13.75;8.60;;;;;;;;;;5105499;27;20058;-81
2023/10/19 14:55:14;;;;;;;;;;;;;;;;;;5099102;28;20046;-79
2023/10/19 14:57:59;;;;;;;12.07;5.43;;;;;;;;;;5108159;27;19930;-81
2023/10/19 15:00:54;;;;;;;23.55;13.98;;;;;;;;;;5107664;27;20059;-79
2023/10/19 15:03:39;;;;;;;20.10;10.57;;;;;;;;;;5108577;27;20045;-81
2023/10/19 15:06:25;;;;;;;31.35;16.00;;;;;;;;;;5109858;27;20058;-78
2023/10/19 15:09:14;;;;;;;20.35;12.30;;;;;;;;;;5109153;27;21314;-83
2023/10/19 15:11:59;;;;;;;31.58;16.80;;;;;;;;;;5103770;27;20485;-82
2023/10/19 15:14:43;;;;;;;36.35;16.67;;;;;;;;;;5109724;27;20390;-80
2023/10/19 15:17:29;;;;;;;38.35;21.92;;;;;;;;;;5109121;27;20042;-82
2023/10/19 15:20:15;;;;;;;38.47;19.63;;;;;;;;;;5111829;27;20042;-80
2023/10/19 15:23:00;;;;;;;42.65;24.70;;;;;;;;;;5105462;27;20042;-80
2023/10/19 15:25:46;;;;;;;53.35;27.15;;;;;;;;;;5111747;27;20034;-79
2023/10/19 15:28:33;;;;;;;43.85;24.85;;;;;;;;;;5106525;27;20054;-81
2023/10/19 15:31:19;;;;;;;48.13;25.10;;;;;;;;;;5103130;27;20458;-83
2023/10/19 15:34:05;;;;;;;53.38;30.10;;;;;;;;;;5109022;27;20058;-82
2023/10/19 15:36:50;;;;;;;57.05;30.10;;;;;;;;;;5107484;27;20038;-83
2023/10/19 15:39:36;;;;;;;78.65;33.90;;;;;;;;;;5107928;27;20469;-80
2023/10/19 15:42:21;;;;;;;78.47;35.70;;;;;;;;;;5108639;27;20101;-81
2023/10/19 15:45:13;;;;;;;62.05;27.08;;;;;;;;;;5108966;27;20117;-81
2023/10/19 15:48:00;;;;;;;68.05;34.08;;;;;;;;;;5109071;27;20393;-83
2023/10/19 15:50:47;;;;;;;74.75;37.35;;;;;;;;;;5100676;27;20492;-82
2023/10/19 15:53:32;;;;;;;65.15;34.13;;;;;;;;;;5101575;27;20042;-83
2023/10/19 15:56:17;;;;;;;62.58;33.63;;;;;;;;;;5108337;27;20120;-81
2023/10/19 15:59:04;;;;;;;64.70;33.75;;;;;;;;;;5101451;27;20046;-81
2023/10/19 16:01:49;;;;;;;80.45;39.50;;;;;;;;;;5107681;27;20046;-82
2023/10/19 16:04:35;;;;;;;70.60;34.53;;;;;;;;;;5100464;27;20066;-81
2023/10/19 16:07:21;;;;;;;70.85;38.53;;;;;;;;;;5108366;27;20481;-85
2023/10/19 16:10:08;;;;;;;94.60;47.00;;;;;;;;;;5108051;27;20058;-82
2023/10/19 16:12:53;;;;;;;87.57;46.58;;;;;;;;;;5101279;27;20481;-82
2023/10/19 16:15:38;;;;;;;82.05;42.67;;;;;;;;;;5107496;27;20477;-80
2023/10/19 16:18:26;;;;;;;78.57;39.58;;;;;;;;;;5104081;27;20382;-82
2023/10/19 16:21:11;;;;;;;83.85;38.75;;;;;;;;;;5101704;27;20047;-80
2023/10/19 16:23:57;;;;;;;80.60;39.25;;;;;;;;;;5105785;27;20393;-80
2023/10/19 16:26:43;;;;;;;74.43;41.00;;;;;;;;;;5103173;27;20038;-81
2023/10/19 16:29:29;;;;;;;91.30;46.53;;;;;;;;;;5096659;27;20091;-79
2023/10/19 16:32:14;;;;;;;74.07;37.40;;;;;;;;;;5100771;27;20537;-81
2023/10/19 16:34:59;;;;;;;82.68;43.63;;;;;;;;;;5104326;27;20058;-80
2023/10/19 16:37:44;;;;;;;100.45;48.60;;;;;;;;;;5103040;27;20038;-84
2023/10/19 16:40:30;;;;;;;104.45;51.13;;;;;;;;;;5094033;27;20113;-79
2023/10/19 16:43:15;;;;;;;94.78;46.50;;;;;;;;;;5101663;27;20050;-81
2023/10/19 16:46:01;;;;;;;99.88;50.53;;;;;;;;;;5097381;27;20054;-81